6hr Temperature Data

Temp.
(°C)
Wind Chill
(°C)
Dew Point
(°C)
Solar Hours
(hh:mm)
Solar Radiation
(w/m2)
Min
7.8 3.7 -111.2 00:00 0.0
Max
9.4 5.9 -111.1 00:00 0.0
Range
1.6 2.2 0.10000000000001 n/a 0
Mode
8.8 5.2 -111.1 00:00 0.0
Median
8.8 5.2 -111.1 00:00 0.0
Mean
8.8 5.1 -111.1 n/a 0
Std. Dev
0.6 0.5 5.8 n/a 0
Temp.
(°C)
Wind Chill
(°C)
Dew Point
(°C)
Solar Hours
(hh:mm)
Solar Radiation
(w/m2)
13/12 09:13 7.8 4 -111.2 00:00 0.0
13/12 09:12 7.8 4.1 -111.2 00:00 0.0
13/12 09:11 7.8 4 -111.2 00:00 0.0
13/12 09:10 7.8 4 -111.2 00:00 0.0
13/12 09:08 7.8 4 -111.2 00:00 0.0
13/12 09:07 7.8 4 -111.2 00:00 0.0
13/12 09:06 8.0 4.2 -111.2 00:00 0.0
13/12 09:05 8.0 4.2 -111.2 00:00 0.0
13/12 09:04 8.0 4.1 -111.2 00:00 0.0
13/12 09:03 8.0 4.1 -111.2 00:00 0.0
13/12 09:02 8.0 4 -111.2 00:00 0.0
13/12 09:01 7.8 3.7 -111.2 00:00 0.0
13/12 09:00 8.0 4 -111.2 00:00 0.0
13/12 08:59 8.0 4 -111.2 00:00 0.0
13/12 08:58 8.0 4 -111.2 00:00 0.0
13/12 08:57 8.0 4 -111.2 00:00 0.0
13/12 08:56 7.8 3.7 -111.2 00:00 0.0
13/12 08:55 7.8 3.8 -111.2 00:00 0.0
13/12 08:54 7.8 3.8 -111.2 00:00 0.0
13/12 08:53 8.0 4 -111.2 00:00 0.0
13/12 08:52 8.0 4.1 -111.2 00:00 0.0
13/12 08:51 8.2 4.4 -111.2 00:00 0.0
13/12 08:50 8.2 4.4 -111.2 00:00 0.0
13/12 08:49 8.2 4.4 -111.2 00:00 0.0
13/12 08:48 8.2 4.3 -111.2 00:00 0.0
13/12 08:47 8.2 4.3 -111.2 00:00 0.0
13/12 08:46 8.2 4.3 -111.2 00:00 0.0
13/12 08:45 8.2 4.3 -111.2 00:00 0.0
13/12 08:44 8.4 4.5 -111.2 00:00 0.0
13/12 08:43 8.4 4.4 -111.2 00:00 0.0
13/12 08:42 8.4 4.4 -111.2 00:00 0.0
13/12 08:41 8.4 4.4 -111.2 00:00 0.0
13/12 08:40 8.4 4.4 -111.2 00:00 0.0
13/12 08:39 8.4 4.4 -111.2 00:00 0.0
13/12 08:38 8.4 4.4 -111.2 00:00 0.0
13/12 08:37 8.4 4.5 -111.2 00:00 0.0
13/12 08:36 8.4 4.5 -111.2 00:00 0.0
13/12 08:35 8.4 4.5 -111.2 00:00 0.0
13/12 08:34 8.4 4.5 -111.2 00:00 0.0
13/12 08:33 8.6 4.8 -111.1 00:00 0.0
13/12 08:32 8.6 4.8 -111.1 00:00 0.0
13/12 08:31 8.6 4.8 -111.1 00:00 0.0
13/12 08:30 8.6 4.8 -111.1 00:00 0.0
13/12 08:29 8.6 4.8 -111.1 00:00 0.0
13/12 08:28 8.6 4.8 -111.1 00:00 0.0
13/12 08:27 8.6 4.8 -111.1 00:00 0.0
13/12 08:26 8.6 4.7 -111.1 00:00 0.0
13/12 08:25 8.6 4.7 -111.1 00:00 0.0
13/12 08:24 8.6 4.7 -111.1 00:00 0.0
13/12 08:22 8.6 4.7 -111.1 00:00 0.0
13/12 08:19 8.6 4.9 -111.1 00:00 0.0
13/12 08:17 8.6 4.9 -111.1 00:00 0.0
13/12 08:14 8.6 5.1 -111.1 00:00 0.0
13/12 08:12 8.4 4.9 -111.2 00:00 0.0
13/12 08:07 8.2 4.5 -111.2 00:00 0.0
13/12 08:04 8.0 4.2 -111.2 00:00 0.0
13/12 08:03 8.0 4.1 -111.2 00:00 0.0
13/12 08:02 8.0 4.1 -111.2 00:00 0.0
13/12 08:01 8.2 4.4 -111.2 00:00 0.0
13/12 08:00 8.2 4.4 -111.2 00:00 0.0
13/12 07:59 8.4 4.6 -111.2 00:00 0.0
13/12 07:58 8.4 4.5 -111.2 00:00 0.0
13/12 07:57 8.4 4.5 -111.2 00:00 0.0
13/12 07:56 8.4 4.6 -111.2 00:00 0.0
13/12 07:55 8.4 4.6 -111.2 00:00 0.0
13/12 07:54 8.4 4.6 -111.2 00:00 0.0
13/12 07:53 8.4 4.6 -111.2 00:00 0.0
13/12 07:52 8.2 4.3 -111.2 00:00 0.0
13/12 07:51 8.2 4.3 -111.2 00:00 0.0
13/12 07:50 8.2 4.2 -111.2 00:00 0.0
13/12 07:49 8.4 4.5 -111.2 00:00 0.0
13/12 07:48 8.4 4.5 -111.2 00:00 0.0
13/12 07:47 8.4 4.4 -111.2 00:00 0.0
13/12 07:46 8.4 4.4 -111.2 00:00 0.0
13/12 07:45 8.6 4.6 -111.1 00:00 0.0
13/12 07:44 8.6 4.6 -111.1 00:00 0.0
13/12 07:43 8.6 4.6 -111.1 00:00 0.0
13/12 07:42 8.8 5 -111.1 00:00 0.0
13/12 07:41 8.8 5 -111.1 00:00 0.0
13/12 07:40 8.8 5 -111.1 00:00 0.0
13/12 07:39 8.8 5 -111.1 00:00 0.0
13/12 07:38 8.8 5 -111.1 00:00 0.0
13/12 07:37 8.8 5.1 -111.1 00:00 0.0
13/12 07:36 8.8 5.1 -111.1 00:00 0.0
13/12 07:35 8.8 5.1 -111.1 00:00 0.0
13/12 07:34 8.8 5.1 -111.1 00:00 0.0
13/12 07:33 8.8 5.1 -111.1 00:00 0.0
13/12 07:32 8.6 4.8 -111.1 00:00 0.0
13/12 07:31 8.6 4.8 -111.1 00:00 0.0
13/12 07:30 8.8 5.1 -111.1 00:00 0.0
13/12 07:29 8.8 5.1 -111.1 00:00 0.0
13/12 07:28 8.8 5.1 -111.1 00:00 0.0
13/12 07:27 8.8 5 -111.1 00:00 0.0
13/12 07:26 8.6 4.7 -111.1 00:00 0.0
13/12 07:25 8.6 4.7 -111.1 00:00 0.0
13/12 07:24 8.8 4.9 -111.1 00:00 0.0
13/12 07:23 8.8 4.9 -111.1 00:00 0.0
13/12 07:22 8.8 4.9 -111.1 00:00 0.0
13/12 07:21 8.8 4.9 -111.1 00:00 0.0
13/12 07:18 8.8 4.9 -111.1 00:00 0.0
13/12 07:16 8.6 4.7 -111.1 00:00 0.0
13/12 07:13 8.6 4.7 -111.1 00:00 0.0
13/12 07:11 8.8 5 -111.1 00:00 0.0
13/12 07:08 8.8 5.1 -111.1 00:00 0.0
13/12 07:06 8.8 5.1 -111.1 00:00 0.0
13/12 07:01 8.8 5 -111.1 00:00 0.0
13/12 07:00 8.8 5 -111.1 00:00 0.0
13/12 06:59 8.8 5 -111.1 00:00 0.0
13/12 06:58 8.8 5 -111.1 00:00 0.0
13/12 06:57 8.8 5 -111.1 00:00 0.0
13/12 06:56 8.8 5 -111.1 00:00 0.0
13/12 06:55 8.8 5 -111.1 00:00 0.0
13/12 06:54 8.8 5 -111.1 00:00 0.0
13/12 06:53 8.8 5.1 -111.1 00:00 0.0
13/12 06:52 8.8 5.1 -111.1 00:00 0.0
13/12 06:51 8.8 5.2 -111.1 00:00 0.0
13/12 06:50 8.8 5.1 -111.1 00:00 0.0
13/12 06:49 8.8 5.2 -111.1 00:00 0.0
13/12 06:48 8.8 5.2 -111.1 00:00 0.0
13/12 06:47 8.8 5.3 -111.1 00:00 0.0
13/12 06:46 8.8 5.3 -111.1 00:00 0.0
13/12 06:45 8.8 5.3 -111.1 00:00 0.0
13/12 06:44 8.8 5.3 -111.1 00:00 0.0
13/12 06:43 8.8 5.3 -111.1 00:00 0.0
13/12 06:42 8.8 5.3 -111.1 00:00 0.0
13/12 06:41 8.8 5.3 -111.1 00:00 0.0
13/12 06:40 8.6 5 -111.1 00:00 0.0
13/12 06:39 8.8 5.2 -111.1 00:00 0.0
13/12 06:38 8.8 5.2 -111.1 00:00 0.0
13/12 06:37 8.8 5.2 -111.1 00:00 0.0
13/12 06:36 8.8 5.2 -111.1 00:00 0.0
13/12 06:35 8.8 5.2 -111.1 00:00 0.0
13/12 06:34 8.8 5.2 -111.1 00:00 0.0
13/12 06:33 8.8 5.2 -111.1 00:00 0.0
13/12 06:32 8.8 5.3 -111.1 00:00 0.0
13/12 06:31 8.8 5.3 -111.1 00:00 0.0
13/12 06:30 8.8 5.3 -111.1 00:00 0.0
13/12 06:29 8.8 5.3 -111.1 00:00 0.0
13/12 06:28 8.8 5.3 -111.1 00:00 0.0
13/12 06:27 8.8 5.3 -111.1 00:00 0.0
13/12 06:26 8.8 5.3 -111.1 00:00 0.0
13/12 06:25 8.8 5.3 -111.1 00:00 0.0
13/12 06:24 8.8 5.3 -111.1 00:00 0.0
13/12 06:23 8.8 5.3 -111.1 00:00 0.0
13/12 06:22 8.8 5.3 -111.1 00:00 0.0
13/12 06:21 8.8 5.2 -111.1 00:00 0.0
13/12 06:20 8.8 5.2 -111.1 00:00 0.0
13/12 06:19 8.8 5.1 -111.1 00:00 0.0
13/12 06:18 8.8 5.2 -111.1 00:00 0.0
13/12 06:17 8.8 5.1 -111.1 00:00 0.0
13/12 06:16 8.8 5.1 -111.1 00:00 0.0
13/12 06:15 8.8 5.2 -111.1 00:00 0.0
13/12 06:12 8.8 5.2 -111.1 00:00 0.0
13/12 06:11 8.8 5.2 -111.1 00:00 0.0
13/12 06:10 8.8 5.3 -111.1 00:00 0.0
13/12 06:07 8.8 5.4 -111.1 00:00 0.0
13/12 06:06 8.6 5.1 -111.1 00:00 0.0
13/12 06:02 8.8 5.3 -111.1 00:00 0.0
13/12 06:01 8.8 5.3 -111.1 00:00 0.0
13/12 06:00 8.8 5.3 -111.1 00:00 0.0
13/12 05:57 8.8 5.3 -111.1 00:00 0.0
13/12 05:56 8.8 5.3 -111.1 00:00 0.0
13/12 05:55 8.8 5.2 -111.1 00:00 0.0
13/12 05:54 8.8 5.2 -111.1 00:00 0.0
13/12 05:53 8.8 5.2 -111.1 00:00 0.0
13/12 05:52 8.8 5.1 -111.1 00:00 0.0
13/12 05:51 8.8 5.1 -111.1 00:00 0.0
13/12 05:50 8.8 5.1 -111.1 00:00 0.0
13/12 05:49 8.8 5.1 -111.1 00:00 0.0
13/12 05:48 8.8 5.1 -111.1 00:00 0.0
13/12 05:47 8.8 5.1 -111.1 00:00 0.0
13/12 05:46 8.8 5.2 -111.1 00:00 0.0
13/12 05:45 8.8 5.2 -111.1 00:00 0.0
13/12 05:44 8.8 5.2 -111.1 00:00 0.0
13/12 05:43 8.8 5.2 -111.1 00:00 0.0
13/12 05:42 8.8 5.2 -111.1 00:00 0.0
13/12 05:41 8.8 5.2 -111.1 00:00 0.0
13/12 05:40 8.8 5.3 -111.1 00:00 0.0
13/12 05:39 8.8 5.2 -111.1 00:00 0.0
13/12 05:38 8.8 5.3 -111.1 00:00 0.0
13/12 05:37 8.8 5.3 -111.1 00:00 0.0
13/12 05:36 8.8 5.3 -111.1 00:00 0.0
13/12 05:35 8.8 5.2 -111.1 00:00 0.0
13/12 05:34 8.8 5.3 -111.1 00:00 0.0
13/12 05:33 8.6 5 -111.1 00:00 0.0
13/12 05:32 8.6 5 -111.1 00:00 0.0
13/12 05:31 8.8 5.3 -111.1 00:00 0.0
13/12 05:30 8.8 5.2 -111.1 00:00 0.0
13/12 05:29 8.8 5.2 -111.1 00:00 0.0
13/12 05:28 8.8 5.3 -111.1 00:00 0.0
13/12 05:27 8.8 5.2 -111.1 00:00 0.0
13/12 05:26 8.8 5.2 -111.1 00:00 0.0
13/12 05:25 8.8 5.2 -111.1 00:00 0.0
13/12 05:24 8.8 5.2 -111.1 00:00 0.0
13/12 05:23 8.8 5.2 -111.1 00:00 0.0
13/12 05:22 8.8 5.1 -111.1 00:00 0.0
13/12 05:21 8.8 5.1 -111.1 00:00 0.0
13/12 05:20 8.8 5.2 -111.1 00:00 0.0
13/12 05:19 8.8 5.1 -111.1 00:00 0.0
13/12 05:18 8.8 5.1 -111.1 00:00 0.0
13/12 05:17 8.8 5 -111.1 00:00 0.0
13/12 05:16 8.8 5 -111.1 00:00 0.0
13/12 05:15 8.8 5 -111.1 00:00 0.0
13/12 05:14 8.8 5.1 -111.1 00:00 0.0
13/12 05:09 8.8 5.1 -111.1 00:00 0.0
13/12 05:04 8.8 5.2 -111.1 00:00 0.0
13/12 04:54 8.8 5.1 -111.1 00:00 0.0
13/12 04:53 8.8 5.1 -111.1 00:00 0.0
13/12 04:52 8.8 5.1 -111.1 00:00 0.0
13/12 04:51 8.8 5.1 -111.1 00:00 0.0
13/12 04:50 8.8 5.1 -111.1 00:00 0.0
13/12 04:49 8.8 5.1 -111.1 00:00 0.0
13/12 04:48 8.8 5.1 -111.1 00:00 0.0
13/12 04:47 8.8 5.1 -111.1 00:00 0.0
13/12 04:46 8.8 5.1 -111.1 00:00 0.0
13/12 04:45 8.8 5 -111.1 00:00 0.0
13/12 04:44 8.8 5 -111.1 00:00 0.0
13/12 04:43 8.8 5 -111.1 00:00 0.0
13/12 04:42 8.8 5 -111.1 00:00 0.0
13/12 04:41 8.8 5 -111.1 00:00 0.0
13/12 04:40 8.8 5 -111.1 00:00 0.0
13/12 04:39 8.8 5 -111.1 00:00 0.0
13/12 04:38 8.8 5 -111.1 00:00 0.0
13/12 04:37 8.8 5.1 -111.1 00:00 0.0
13/12 04:36 8.8 5.1 -111.1 00:00 0.0
13/12 04:35 8.8 5.2 -111.1 00:00 0.0
13/12 04:34 8.8 5.2 -111.1 00:00 0.0
13/12 04:33 8.8 5.1 -111.1 00:00 0.0
13/12 04:32 8.8 5.1 -111.1 00:00 0.0
13/12 04:31 8.8 5.2 -111.1 00:00 0.0
13/12 04:30 8.8 5.1 -111.1 00:00 0.0
13/12 04:29 8.8 5.1 -111.1 00:00 0.0
13/12 04:28 8.8 5.1 -111.1 00:00 0.0
13/12 04:27 8.8 5.1 -111.1 00:00 0.0
13/12 04:26 8.8 5.1 -111.1 00:00 0.0
13/12 04:25 8.8 5.1 -111.1 00:00 0.0
13/12 04:24 8.8 5.1 -111.1 00:00 0.0
13/12 04:23 9.0 5.3 -111.1 00:00 0.0
13/12 04:22 9.0 5.3 -111.1 00:00 0.0
13/12 04:21 9.0 5.3 -111.1 00:00 0.0
13/12 04:20 8.8 5.1 -111.1 00:00 0.0
13/12 04:19 8.8 5.1 -111.1 00:00 0.0
13/12 04:18 9.0 5.4 -111.1 00:00 0.0
13/12 04:17 9.0 5.4 -111.1 00:00 0.0
13/12 04:16 9.0 5.4 -111.1 00:00 0.0
13/12 04:15 8.8 5.2 -111.1 00:00 0.0
13/12 04:14 8.8 5.2 -111.1 00:00 0.0
13/12 04:13 8.8 5.2 -111.1 00:00 0.0
13/12 04:12 9.0 5.5 -111.1 00:00 0.0
13/12 04:11 8.8 5.2 -111.1 00:00 0.0
13/12 04:10 8.8 5.2 -111.1 00:00 0.0
13/12 04:08 8.8 5.2 -111.1 00:00 0.0
13/12 04:05 8.8 5.2 -111.1 00:00 0.0
13/12 04:03 8.8 5.2 -111.1 00:00 0.0
13/12 04:00 8.8 5.2 -111.1 00:00 0.0
13/12 03:58 8.8 5.2 -111.1 00:00 0.0
13/12 03:53 9.0 5.5 -111.1 00:00 0.0
13/12 03:50 8.8 5.1 -111.1 00:00 0.0
13/12 03:49 9.0 5.3 -111.1 00:00 0.0
13/12 03:48 9.0 5.4 -111.1 00:00 0.0
13/12 03:47 9.0 5.4 -111.1 00:00 0.0
13/12 03:46 9.0 5.4 -111.1 00:00 0.0
13/12 03:45 9.0 5.4 -111.1 00:00 0.0
13/12 03:44 9.0 5.4 -111.1 00:00 0.0
13/12 03:43 9.0 5.4 -111.1 00:00 0.0
13/12 03:42 9.0 5.5 -111.1 00:00 0.0
13/12 03:41 9.0 5.5 -111.1 00:00 0.0
13/12 03:40 9.0 5.6 -111.1 00:00 0.0
13/12 03:39 9.0 5.6 -111.1 00:00 0.0
13/12 03:38 9.0 5.7 -111.1 00:00 0.0
13/12 03:37 9.0 5.6 -111.1 00:00 0.0
13/12 03:36 9.0 5.6 -111.1 00:00 0.0
13/12 03:35 9.0 5.5 -111.1 00:00 0.0
13/12 03:34 9.0 5.5 -111.1 00:00 0.0
13/12 03:33 9.0 5.5 -111.1 00:00 0.0
13/12 03:32 9.0 5.4 -111.1 00:00 0.0
13/12 03:31 9.0 5.4 -111.1 00:00 0.0
13/12 03:30 9.0 5.3 -111.1 00:00 0.0
13/12 03:29 9.0 5.3 -111.1 00:00 0.0
13/12 03:28 9.0 5.3 -111.1 00:00 0.0
13/12 03:27 9.0 5.3 -111.1 00:00 0.0
13/12 03:26 9.0 5.3 -111.1 00:00 0.0
13/12 03:25 9.0 5.3 -111.1 00:00 0.0
13/12 03:24 9.0 5.3 -111.1 00:00 0.0
13/12 03:23 9.0 5.3 -111.1 00:00 0.0
13/12 03:22 9.0 5.2 -111.1 00:00 0.0
13/12 03:21 9.0 5.2 -111.1 00:00 0.0
13/12 03:20 9.0 5.2 -111.1 00:00 0.0
13/12 03:19 9.0 5.2 -111.1 00:00 0.0
13/12 03:18 8.8 4.9 -111.1 00:00 0.0
13/12 03:17 8.8 4.9 -111.1 00:00 0.0
13/12 03:16 9.0 5.2 -111.1 00:00 0.0
13/12 03:15 9.0 5.2 -111.1 00:00 0.0
13/12 03:14 9.0 5.2 -111.1 00:00 0.0
13/12 03:13 9.0 5.2 -111.1 00:00 0.0
13/12 03:12 9.0 5.2 -111.1 00:00 0.0
13/12 03:11 9.0 5.2 -111.1 00:00 0.0
13/12 02:48 9.0 5.4 -111.1 00:00 0.0
13/12 02:47 9.0 5.4 -111.1 00:00 0.0
13/12 02:46 9.0 5.4 -111.1 00:00 0.0
13/12 02:45 9.0 5.4 -111.1 00:00 0.0
13/12 02:43 9.0 5.3 -111.1 00:00 0.0
13/12 02:42 9.0 5.4 -111.1 00:00 0.0
13/12 02:41 9.0 5.4 -111.1 00:00 0.0
13/12 02:40 9.0 5.4 -111.1 00:00 0.0
13/12 02:39 9.0 5.4 -111.1 00:00 0.0
13/12 02:38 9.0 5.3 -111.1 00:00 0.0
13/12 02:37 9.0 5.3 -111.1 00:00 0.0
13/12 02:36 9.0 5.3 -111.1 00:00 0.0
13/12 02:35 9.0 5.4 -111.1 00:00 0.0
13/12 02:34 9.2 5.6 -111.1 00:00 0.0
13/12 02:33 9.0 5.3 -111.1 00:00 0.0
13/12 02:32 9.0 5.3 -111.1 00:00 0.0
13/12 02:31 9.0 5.3 -111.1 00:00 0.0
13/12 02:30 9.0 5.3 -111.1 00:00 0.0
13/12 02:29 9.2 5.5 -111.1 00:00 0.0
13/12 02:28 9.0 5.3 -111.1 00:00 0.0
13/12 02:27 9.0 5.3 -111.1 00:00 0.0
13/12 02:26 9.0 5.4 -111.1 00:00 0.0
13/12 02:25 9.2 5.6 -111.1 00:00 0.0
13/12 02:24 9.0 5.4 -111.1 00:00 0.0
13/12 02:23 9.0 5.5 -111.1 00:00 0.0
13/12 02:22 9.0 5.5 -111.1 00:00 0.0
13/12 02:21 9.2 5.8 -111.1 00:00 0.0
13/12 02:20 9.0 5.5 -111.1 00:00 0.0
13/12 02:19 9.0 5.6 -111.1 00:00 0.0
13/12 02:18 9.2 5.9 -111.1 00:00 0.0
13/12 02:17 9.2 5.8 -111.1 00:00 0.0
13/12 02:16 9.2 5.8 -111.1 00:00 0.0
13/12 02:15 9.2 5.8 -111.1 00:00 0.0
13/12 02:14 9.2 5.8 -111.1 00:00 0.0
13/12 02:13 9.2 5.8 -111.1 00:00 0.0
13/12 02:12 9.2 5.7 -111.1 00:00 0.0
13/12 02:11 9.0 5.5 -111.1 00:00 0.0
13/12 02:10 9.0 5.5 -111.1 00:00 0.0
13/12 02:09 9.0 5.4 -111.1 00:00 0.0
13/12 02:08 9.2 5.6 -111.1 00:00 0.0
13/12 02:07 9.2 5.6 -111.1 00:00 0.0
13/12 02:06 9.2 5.6 -111.1 00:00 0.0
13/12 02:05 9.2 5.6 -111.1 00:00 0.0
13/12 02:04 9.2 5.6 -111.1 00:00 0.0
13/12 02:03 9.2 5.6 -111.1 00:00 0.0
13/12 02:02 9.2 5.6 -111.1 00:00 0.0
13/12 02:01 9.2 5.5 -111.1 00:00 0.0
13/12 02:00 9.0 5.3 -111.1 00:00 0.0
13/12 01:59 9.0 5.3 -111.1 00:00 0.0
13/12 01:58 9.2 5.6 -111.1 00:00 0.0
13/12 01:56 9.2 5.6 -111.1 00:00 0.0
13/12 01:54 9.2 5.7 -111.1 00:00 0.0
13/12 01:53 9.2 5.6 -111.1 00:00 0.0
13/12 01:51 9.2 5.7 -111.1 00:00 0.0
13/12 01:49 9.4 5.9 -111.1 00:00 0.0
13/12 01:48 9.4 5.8 -111.1 00:00 0.0
13/12 01:46 9.4 5.8 -111.1 00:00 0.0
13/12 01:44 9.4 5.8 -111.1 00:00 0.0
13/12 01:39 9.2 5.5 -111.1 00:00 0.0
13/12 01:38 9.4 5.8 -111.1 00:00 0.0
13/12 01:37 9.2 5.5 -111.1 00:00 0.0
13/12 01:36 9.2 5.5 -111.1 00:00 0.0
13/12 01:35 9.2 5.5 -111.1 00:00 0.0
13/12 01:34 9.2 5.5 -111.1 00:00 0.0



    Load Time 0.022981 seconds